Time;durP1;ratioP1;P1;durP2;ratioP2;P2;SDS_P1;SDS_P2;PMS_P1;PMS_P2;Temp;Humidity;BMP_temperature;BMP_pressure;BME280_temperature;BME280_humidity;BME280_pressure;Samples;Min_cycle;Max_cycle;Signal;HPM_P1;HPM_P2
2022/02/24 00:00:19;;;;;;;16.02;8.27;;;;;;;8.46;100.00;99721.66;4965167;28;20205;-78
2022/02/24 00:02:45;;;;;;;11.63;8.85;;;;;;;8.40;100.00;99721.94;4963271;28;20295;-78
2022/02/24 00:05:14;;;;;;;12.85;8.15;;;;;;;8.48;100.00;99727.81;4962305;28;20263;-79
2022/02/24 00:07:41;;;;;;;16.83;8.32;;;;;;;8.33;100.00;99723.13;4971463;28;20209;-78
2022/02/24 00:10:10;;;;;;;12.02;8.02;;;;;;;8.54;100.00;99719.44;4963248;28;20632;-78
2022/02/24 00:12:38;;;;;;;11.55;7.30;;;;;;;8.67;100.00;99717.06;4955901;28;20192;-78
2022/02/24 00:15:06;;;;;;;11.55;7.28;;;;;;;8.60;100.00;99714.75;4967530;28;20209;-78
2022/02/24 00:17:33;;;;;;;11.23;7.60;;;;;;;8.63;100.00;99712.78;4965884;28;20333;-79
2022/02/24 00:19:59;;;;;;;12.07;8.13;;;;;;;8.74;100.00;99705.06;4962257;28;20201;-79
2022/02/24 00:22:28;;;;;;;8.45;7.32;;;;;;;8.52;100.00;99715.09;4957247;28;20298;-78
2022/02/24 00:24:54;;;;;;;10.85;6.72;;;;;;;8.46;100.00;99700.19;4955732;28;20536;-79
2022/02/24 00:27:21;;;;;;;9.10;6.75;;;;;;;8.54;100.00;99708.72;4964723;28;20201;-78
2022/02/24 00:29:48;;;;;;;12.73;7.80;;;;;;;8.55;100.00;99698.88;4962055;28;20284;-79
2022/02/24 00:32:15;;;;;;;12.65;7.43;;;;;;;8.61;100.00;99708.44;4958398;28;20704;-79
2022/02/24 00:34:41;;;;;;;12.20;7.05;;;;;;;8.63;100.00;99701.19;4967406;28;20706;-80
2022/02/24 00:37:08;;;;;;;10.75;6.32;;;;;;;8.60;100.00;99695.97;4966211;28;20202;-80
2022/02/24 00:39:36;;;;;;;9.70;7.07;;;;;;;8.59;100.00;99696.91;4966590;28;20211;-79
2022/02/24 00:42:03;;;;;;;9.95;6.75;;;;;;;8.68;100.00;99694.66;4965922;28;20691;-79
2022/02/24 00:44:30;;;;;;;12.63;6.78;;;;;;;8.67;100.00;99692.91;4955256;28;20200;-80
2022/02/24 00:46:57;;;;;;;9.93;6.95;;;;;;;8.65;100.00;99688.56;4956797;28;20284;-80
2022/02/24 00:49:23;;;;;;;14.02;11.15;;;;;;;8.81;100.00;99689.53;4965350;28;20278;-80
2022/02/24 00:51:50;;;;;;;14.40;9.13;;;;;;;9.02;99.91;99682.22;4961034;28;20285;-79
2022/02/24 00:54:17;;;;;;;7.57;5.00;;;;;;;9.33;94.24;99683.34;4970910;28;20652;-79
2022/02/24 00:56:45;;;;;;;6.93;4.60;;;;;;;9.40;93.51;99684.75;4968195;28;20286;-79
2022/02/24 00:59:11;;;;;;;6.40;5.00;;;;;;;9.43;92.01;99678.34;4964619;28;20190;-78
2022/02/24 01:01:38;;;;;;;6.50;4.13;;;;;;;9.69;88.67;99669.78;4968652;28;20577;-79
2022/02/24 01:04:05;;;;;;;6.82;4.60;;;;;;;9.68;88.51;99675.25;4956178;28;20227;-79
2022/02/24 01:06:31;;;;;;;5.82;4.35;;;;;;;9.67;88.25;99663.63;4969480;28;20572;-79
2022/02/24 01:08:58;;;;;;;7.25;5.20;;;;;;;9.69;87.58;99663.56;4962471;28;20290;-78
2022/02/24 01:11:24;;;;;;;8.15;5.18;;;;;;;9.78;87.22;99665.75;4952016;28;20188;-78
2022/02/24 01:13:52;;;;;;;6.85;5.05;;;;;;;9.77;87.52;99661.34;4969535;28;20288;-78
2022/02/24 01:16:19;;;;;;;5.22;4.70;;;;;;;9.75;86.82;99655.16;4964956;28;20193;-79
2022/02/24 01:18:46;;;;;;;6.30;4.40;;;;;;;9.81;86.24;99660.19;4960539;28;20199;-79
2022/02/24 01:21:12;;;;;;;6.35;4.88;;;;;;;9.82;86.19;99661.94;4962438;28;20231;-79
2022/02/24 01:23:39;;;;;;;6.82;4.30;;;;;;;9.72;86.90;99656.22;4964973;28;20283;-79
2022/02/24 01:26:06;;;;;;;6.43;4.78;;;;;;;9.87;85.65;99653.63;4955743;28;20227;-79
2022/02/24 01:28:32;;;;;;;6.28;5.15;;;;;;;9.60;87.32;99651.47;4954563;28;20227;-79
2022/02/24 01:31:00;;;;;;;5.82;4.70;;;;;;;9.66;87.38;99647.59;4966495;28;20697;-80
2022/02/24 01:33:27;;;;;;;5.00;4.32;;;;;;;9.83;86.66;99644.84;4966258;28;20188;-79
2022/02/24 01:35:54;;;;;;;7.32;5.53;;;;;;;9.60;87.73;99640.72;4965131;28;20276;-79
2022/02/24 01:38:21;;;;;;;5.63;4.90;;;;;;;9.24;91.72;99648.91;4965986;28;20189;-79
2022/02/24 01:40:48;;;;;;;7.82;5.10;;;;;;;9.06;93.64;99645.34;4956105;28;20232;-79
2022/02/24 01:43:15;;;;;;;7.65;5.20;;;;;;;9.10;94.13;99636.19;4961847;28;20198;-79
2022/02/24 01:45:41;;;;;;;8.48;4.85;;;;;;;9.26;92.54;99641.63;4962130;28;20193;-79
2022/02/24 01:48:09;;;;;;;6.15;4.88;;;;;;;9.19;93.76;99633.88;4965271;28;20275;-79
2022/02/24 01:50:38;;;;;;;9.50;4.72;;;;;;;9.06;95.57;99618.47;4956369;28;20278;-79
2022/02/24 01:53:05;;;;;;;5.25;4.18;;;;;;;8.97;95.68;99623.38;4963034;28;20202;-79
2022/02/24 01:55:32;;;;;;;12.70;5.95;;;;;;;8.90;97.36;99611.19;4961882;28;20234;-79
2022/02/24 01:57:58;;;;;;;6.60;4.50;;;;;;;8.86;98.73;99622.19;4961597;28;20195;-79
2022/02/24 02:00:25;;;;;;;6.35;4.57;;;;;;;8.88;97.00;99620.28;4959170;28;20207;-78
2022/02/24 02:02:52;;;;;;;10.13;5.45;;;;;;;8.73;100.00;99611.22;4964592;28;20207;-79
2022/02/24 02:05:20;;;;;;;9.85;6.13;;;;;;;8.51;100.00;99606.91;4971762;28;20294;-79
2022/02/24 02:07:47;;;;;;;7.65;4.60;;;;;;;8.70;100.00;99597.94;4956562;28;20693;-79
2022/02/24 02:10:13;;;;;;;5.45;4.20;;;;;;;8.71;100.00;99597.84;4960335;28;20218;-79
2022/02/24 02:12:47;;;;;;;12.43;5.05;;;;;;;8.88;98.33;99594.28;4972599;28;20218;-79
2022/02/24 02:15:14;;;;;;;5.32;4.40;;;;;;;8.75;99.23;99580.66;4953013;28;20197;-79
2022/02/24 02:17:41;;;;;;;8.13;4.60;;;;;;;8.82;99.84;99596.44;4962340;28;20189;-79
2022/02/24 02:20:09;;;;;;;7.40;4.10;;;;;;;8.83;100.00;99577.56;4956213;28;20289;-79
2022/02/24 02:22:36;;;;;;;8.05;5.05;;;;;;;8.88;99.71;99578.19;4961348;28;20213;-79
2022/02/24 02:25:06;;;;;;;6.82;4.80;;;;;;;9.13;97.19;99574.22;4969263;28;20534;-79
2022/02/24 02:27:33;;;;;;;7.20;4.40;;;;;;;9.24;96.19;99577.22;4967468;28;20642;-79
2022/02/24 02:30:00;;;;;;;6.00;4.78;;;;;;;9.39;94.43;99572.84;4949189;28;20231;-79
2022/02/24 02:32:27;;;;;;;5.80;4.80;;;;;;;9.33;94.99;99565.97;4963495;28;20207;-79
2022/02/24 02:34:54;;;;;;;5.47;3.58;;;;;;;9.36;94.51;99559.56;4952866;28;20660;-79
2022/02/24 02:37:20;;;;;;;6.85;4.80;;;;;;;9.52;92.92;99564.97;4961481;28;20629;-79
2022/02/24 02:39:48;;;;;;;8.65;4.15;;;;;;;9.58;91.83;99556.59;4962716;28;20203;-79
2022/02/24 02:42:15;;;;;;;6.50;4.57;;;;;;;9.60;91.93;99549.31;4960001;28;20238;-79
2022/02/24 02:44:42;;;;;;;6.43;4.10;;;;;;;9.54;91.98;99545.16;4961411;28;20713;-79
2022/02/24 02:47:09;;;;;;;6.82;4.22;;;;;;;9.53;92.17;99542.53;4962379;28;20295;-79
2022/02/24 02:49:38;;;;;;;5.93;4.60;;;;;;;9.52;92.53;99536.31;4956776;28;20213;-79
2022/02/24 02:52:05;;;;;;;6.07;4.60;;;;;;;9.47;93.06;99538.34;4954997;28;20626;-79
2022/02/24 02:54:32;;;;;;;5.55;4.50;;;;;;;9.54;92.83;99541.56;4955106;28;20205;-79
2022/02/24 02:57:00;;;;;;;6.53;4.38;;;;;;;9.55;92.84;99532.56;4961442;28;20308;-79
2022/02/24 02:59:27;;;;;;;6.43;4.20;;;;;;;9.60;92.29;99528.66;4962300;28;20278;-79
2022/02/24 03:01:54;;;;;;;5.30;4.15;;;;;;;9.47;93.64;99524.06;4964316;28;20218;-80
2022/02/24 03:04:21;;;;;;;6.70;4.25;;;;;;;9.53;92.76;99516.53;4959911;28;20203;-79
2022/02/24 03:06:48;;;;;;;4.53;3.92;;;;;;;9.56;91.43;99515.47;4963774;28;20220;-79
2022/02/24 03:09:15;;;;;;;4.57;4.07;;;;;;;9.64;90.73;99509.69;4965553;28;20203;-79
2022/02/24 03:11:42;;;;;;;4.90;3.92;;;;;;;9.65;91.10;99509.59;4972315;28;20201;-79
2022/02/24 03:14:10;;;;;;;5.22;3.90;;;;;;;9.64;91.59;99498.94;4964283;28;20681;-79
2022/02/24 03:16:36;;;;;;;7.07;4.18;;;;;;;9.65;91.24;99500.66;4966248;28;20195;-80
2022/02/24 03:19:04;;;;;;;6.50;4.25;;;;;;;9.64;91.59;99504.31;4967213;28;20206;-79
2022/02/24 03:21:30;;;;;;;9.85;4.50;;;;;;;9.68;90.86;99501.38;4959690;28;20198;-79
2022/02/24 03:23:57;;;;;;;6.90;3.97;;;;;;;9.69;90.30;99484.28;4970282;28;20286;-79
2022/02/24 03:26:24;;;;;;;6.25;3.85;;;;;;;9.62;90.35;99490.97;4959435;28;20281;-79
2022/02/24 03:28:50;;;;;;;6.68;4.30;;;;;;;9.65;90.80;99488.09;4957191;29;20283;-79
2022/02/24 03:31:18;;;;;;;7.15;4.40;;;;;;;9.68;89.73;99487.94;4962238;28;20698;-79
2022/02/24 03:33:45;;;;;;;6.07;4.50;;;;;;;9.66;89.72;99478.22;4958165;28;20196;-79
2022/02/24 03:36:12;;;;;;;5.18;3.90;;;;;;;9.58;91.18;99476.81;4967340;28;20202;-79
2022/02/24 03:38:39;;;;;;;8.32;4.40;;;;;;;9.61;90.95;99467.72;4956827;28;20198;-79
2022/02/24 03:41:06;;;;;;;5.57;4.47;;;;;;;9.63;91.53;99464.94;4961696;28;20298;-79
2022/02/24 03:43:32;;;;;;;5.95;4.80;;;;;;;9.64;91.22;99469.38;4956967;28;20226;-79
2022/02/24 03:45:59;;;;;;;6.65;4.57;;;;;;;9.51;91.88;99469.19;4962681;28;20729;-79
2022/02/24 03:48:27;;;;;;;5.82;4.13;;;;;;;9.52;92.03;99461.06;4965957;28;20299;-79
2022/02/24 03:50:54;;;;;;;6.05;4.30;;;;;;;9.52;92.17;99454.78;4969725;28;20289;-79
2022/02/24 03:53:20;;;;;;;6.95;5.03;;;;;;;9.52;92.09;99457.47;4957326;28;20188;-78
2022/02/24 03:55:47;;;;;;;6.13;4.20;;;;;;;9.57;91.56;99452.72;4963680;28;20665;-79
2022/02/24 03:58:14;;;;;;;6.18;3.72;;;;;;;9.46;92.06;99458.69;4959301;28;20565;-79
2022/02/24 04:00:40;;;;;;;5.13;3.92;;;;;;;9.46;92.38;99449.78;4967077;28;20199;-79
2022/02/24 04:03:07;;;;;;;8.25;4.10;;;;;;;9.53;91.87;99448.47;4963717;28;20223;-79
2022/02/24 04:05:35;;;;;;;6.47;4.10;;;;;;;9.57;90.80;99445.53;4966274;28;20978;-78
2022/02/24 04:08:01;;;;;;;6.85;4.18;;;;;;;9.59;91.29;99440.94;4950227;28;20953;-79
2022/02/24 04:10:28;;;;;;;5.97;3.63;;;;;;;9.58;90.54;99444.56;4950717;29;20207;-79
2022/02/24 04:12:55;;;;;;;5.57;3.70;;;;;;;9.58;91.03;99433.81;4964503;28;20887;-79
2022/02/24 04:15:21;;;;;;;10.23;4.20;;;;;;;9.56;91.19;99426.78;4966044;28;20195;-79
2022/02/24 04:17:49;;;;;;;6.35;4.57;;;;;;;9.63;90.45;99424.63;4965708;28;20205;-79
2022/02/24 04:20:15;;;;;;;6.05;3.95;;;;;;;9.64;90.71;99421.00;4964809;28;20191;-79
2022/02/24 04:22:43;;;;;;;5.95;4.15;;;;;;;9.59;91.15;99421.25;4961918;28;20720;-79
2022/02/24 04:25:10;;;;;;;7.15;5.55;;;;;;;9.68;90.29;99417.16;4971074;28;20202;-79
2022/02/24 04:27:36;;;;;;;5.20;4.10;;;;;;;9.59;91.04;99418.56;4963482;28;20203;-79
2022/02/24 04:30:04;;;;;;;5.88;4.03;;;;;;;9.51;92.19;99412.75;4962638;28;20286;-79
2022/02/24 04:32:30;;;;;;;4.90;3.78;;;;;;;9.58;91.56;99398.84;4963014;28;20245;-79
2022/02/24 04:34:57;;;;;;;4.22;3.47;;;;;;;9.68;90.89;99401.91;4963351;28;20205;-79
2022/02/24 04:37:24;;;;;;;6.70;4.10;;;;;;;9.67;90.91;99393.91;4963524;28;20223;-79
2022/02/24 04:39:52;;;;;;;9.43;4.20;;;;;;;9.66;91.24;99398.44;4956548;28;20206;-79
2022/02/24 04:42:18;;;;;;;3.50;2.95;;;;;;;9.64;91.36;99389.59;4965957;28;21021;-79
2022/02/24 04:44:45;;;;;;;8.95;4.25;;;;;;;9.69;92.42;99390.19;4959959;28;20206;-79
2022/02/24 04:47:11;;;;;;;7.43;3.92;;;;;;;9.67;91.70;99389.41;4964852;28;20203;-79
2022/02/24 04:49:38;;;;;;;6.65;3.70;;;;;;;9.47;93.40;99387.84;4966340;28;20648;-79
2022/02/24 04:52:05;;;;;;;4.80;3.85;;;;;;;9.48;93.60;99381.53;4964512;28;20292;-79
2022/02/24 04:54:32;;;;;;;4.32;3.90;;;;;;;9.54;93.76;99377.63;4956368;28;20279;-79
2022/02/24 04:57:00;;;;;;;6.40;3.90;;;;;;;9.57;93.08;99370.25;4962700;28;20207;-79
2022/02/24 04:59:27;;;;;;;6.78;4.75;;;;;;;9.52;93.53;99364.28;4965621;28;20214;-79
2022/02/24 05:01:53;;;;;;;6.57;5.35;;;;;;;9.51;94.11;99367.06;4965745;28;20699;-80
2022/02/24 05:04:20;;;;;;;6.30;4.22;;;;;;;9.59;93.40;99362.13;4958948;28;20277;-79
2022/02/24 05:06:46;;;;;;;6.00;4.18;;;;;;;9.72;92.03;99357.75;4966309;28;20298;-79
2022/02/24 05:09:13;;;;;;;8.32;4.00;;;;;;;9.62;92.73;99367.31;4967308;28;20657;-79
2022/02/24 05:11:40;;;;;;;6.35;3.97;;;;;;;9.53;93.06;99357.09;4967056;28;20204;-79
2022/02/24 05:14:08;;;;;;;7.55;4.07;;;;;;;9.24;95.56;99348.00;4965261;28;20213;-79
2022/02/24 05:16:35;;;;;;;4.43;3.60;;;;;;;9.20;97.09;99358.03;4964143;28;20206;-79
2022/02/24 05:19:01;;;;;;;4.93;3.35;;;;;;;9.43;95.92;99361.25;4955157;28;20198;-79
2022/02/24 05:21:28;;;;;;;4.15;3.60;;;;;;;9.52;94.40;99348.16;4967839;28;20194;-79
2022/02/24 05:23:55;;;;;;;6.03;4.13;;;;;;;9.57;93.55;99353.28;4964216;28;20636;-79
2022/02/24 05:26:21;;;;;;;8.40;4.20;;;;;;;9.52;92.64;99347.28;4958520;28;20705;-79
2022/02/24 05:28:48;;;;;;;6.60;4.22;;;;;;;9.56;93.19;99356.91;4964035;28;20189;-79
2022/02/24 05:31:16;;;;;;;6.93;4.35;;;;;;;9.56;93.23;99332.72;4956893;28;20655;-82
2022/02/24 05:33:43;;;;;;;6.10;3.63;;;;;;;9.52;93.04;99340.09;4962499;28;20188;-81
2022/02/24 05:36:09;;;;;;;7.20;3.78;;;;;;;9.53;93.76;99338.28;4960601;28;20191;-81
2022/02/24 05:38:36;;;;;;;7.30;3.92;;;;;;;9.44;94.18;99333.44;4970467;28;20187;-80
2022/02/24 05:41:03;;;;;;;10.55;4.20;;;;;;;9.53;94.32;99330.22;4955785;28;20195;-80
2022/02/24 05:43:30;;;;;;;7.80;4.28;;;;;;;9.49;94.74;99325.97;4962142;28;20664;-81
2022/02/24 05:45:57;;;;;;;7.93;3.60;;;;;;;9.56;94.80;99321.94;4961645;28;20570;-81
2022/02/24 05:48:25;;;;;;;5.53;3.95;;;;;;;9.56;93.85;99311.22;4959651;28;20657;-81
2022/02/24 05:50:51;;;;;;;7.07;4.45;;;;;;;9.47;94.28;99309.91;4963475;28;20199;-80
2022/02/24 05:53:18;;;;;;;4.90;3.40;;;;;;;9.45;94.79;99308.28;4961976;28;20196;-80
2022/02/24 05:55:45;;;;;;;5.57;3.42;;;;;;;9.49;94.54;99312.53;4959540;28;20617;-80
2022/02/24 05:58:11;;;;;;;6.60;3.70;;;;;;;9.46;94.05;99300.13;4964022;28;20194;-81
2022/02/24 06:00:38;;;;;;;9.40;5.32;;;;;;;9.52;94.44;99298.91;4960685;28;20280;-80
2022/02/24 06:03:04;;;;;;;7.55;4.55;;;;;;;9.52;95.02;99294.41;4957292;28;20222;-81
2022/02/24 06:05:33;;;;;;;7.03;4.43;;;;;;;9.42;96.17;99289.66;4965285;28;20652;-80
2022/02/24 06:07:59;;;;;;;6.85;5.28;;;;;;;9.42;96.35;99287.81;4954266;28;20191;-80
2022/02/24 06:10:26;;;;;;;6.75;4.47;;;;;;;9.50;94.76;99292.78;4956492;28;20217;-80
2022/02/24 06:12:57;;;;;;;6.95;4.72;;;;;;;9.37;96.56;99289.91;4962251;28;20193;-80
2022/02/24 06:15:24;;;;;;;7.68;5.60;;;;;;;9.40;97.77;99292.41;4961538;28;20192;-80
2022/02/24 06:17:52;;;;;;;5.80;4.30;;;;;;;9.32;98.21;99300.09;4969314;28;20195;-79
2022/02/24 06:20:18;;;;;;;9.60;5.05;;;;;;;9.36;97.64;99290.88;4962300;28;20944;-80
2022/02/24 06:22:48;;;;;;;13.75;5.90;;;;;;;9.31;99.52;99295.66;4960535;28;20228;-82
2022/02/24 06:25:15;;;;;;;5.60;4.22;;;;;;;9.30;99.25;99299.31;4967709;28;20207;-81
2022/02/24 06:27:42;;;;;;;7.85;5.15;;;;;;;9.27;100.00;99283.34;4957501;28;20728;-81
2022/02/24 06:30:09;;;;;;;7.78;5.22;;;;;;;9.26;100.00;99287.00;4964701;28;20309;-81
2022/02/24 06:32:37;;;;;;;8.15;5.00;;;;;;;9.23;99.50;99288.03;4964993;28;20643;-81
2022/02/24 06:35:05;;;;;;;8.52;4.53;;;;;;;9.26;99.75;99281.63;4962813;28;20198;-82
2022/02/24 06:37:31;;;;;;;9.40;5.10;;;;;;;9.33;98.39;99278.47;4963355;28;20188;-81
2022/02/24 06:40:00;;;;;;;8.15;4.25;;;;;;;9.37;97.42;99268.44;4959669;28;20206;-79
2022/02/24 06:42:27;;;;;;;6.20;4.70;;;;;;;9.39;97.61;99271.91;4962405;28;20207;-79
2022/02/24 06:44:53;;;;;;;6.45;4.18;;;;;;;9.42;96.18;99279.75;4960596;28;20220;-79
2022/02/24 06:47:20;;;;;;;7.18;4.05;;;;;;;9.37;96.54;99261.22;4966944;28;20242;-79
2022/02/24 06:49:47;;;;;;;6.20;3.50;;;;;;;9.37;96.46;99274.66;4956495;29;20199;-79
2022/02/24 06:52:13;;;;;;;9.18;3.65;;;;;;;9.34;95.74;99264.09;4955894;29;20290;-80
2022/02/24 06:54:40;;;;;;;6.28;3.55;;;;;;;9.33;95.28;99269.56;4959111;28;20578;-79
2022/02/24 06:57:08;;;;;;;5.40;3.92;;;;;;;9.28;95.60;99263.59;4966703;28;20293;-80
2022/02/24 06:59:35;;;;;;;4.47;4.03;;;;;;;9.29;97.03;99255.41;4967457;28;20199;-79
2022/02/24 07:02:02;;;;;;;6.00;3.92;;;;;;;9.36;96.44;99256.81;4977926;28;20276;-79
2022/02/24 07:04:29;;;;;;;8.07;3.92;;;;;;;9.31;96.42;99264.25;4974953;28;20230;-80
2022/02/24 07:06:57;;;;;;;6.03;4.13;;;;;;;9.30;96.27;99261.69;4964551;28;20206;-81
2022/02/24 07:09:24;;;;;;;7.03;4.13;;;;;;;9.33;97.00;99267.72;4978950;28;20218;-79
2022/02/24 07:11:51;;;;;;;6.45;4.20;;;;;;;9.36;96.53;99262.19;4965481;28;20568;-80
2022/02/24 07:14:19;;;;;;;5.63;3.92;;;;;;;9.46;96.02;99264.34;4966350;28;20264;-82
2022/02/24 07:16:46;;;;;;;4.53;3.90;;;;;;;9.46;95.27;99256.28;4977375;28;20570;-81
2022/02/24 07:19:12;;;;;;;5.00;4.10;;;;;;;9.47;95.57;99258.00;4966986;28;20598;-79
2022/02/24 07:21:39;;;;;;;6.78;3.70;;;;;;;9.44;96.76;99253.66;4969329;28;20273;-79
2022/02/24 07:24:06;;;;;;;6.07;4.10;;;;;;;9.55;95.85;99259.28;4964448;28;20301;-80
2022/02/24 07:26:33;;;;;;;5.95;3.83;;;;;;;9.64;94.88;99249.81;4964249;28;20200;-81
2022/02/24 07:28:59;;;;;;;12.25;4.68;;;;;;;9.69;94.04;99253.06;4968067;28;20710;-80
2022/02/24 07:31:29;;;;;;;7.07;4.28;;;;;;;9.77;93.71;99258.88;4960248;28;20321;-79
2022/02/24 07:34:11;;;;;;;8.32;3.63;;;;;;;9.70;94.48;99251.25;4965824;28;20195;-79
2022/02/24 07:36:40;;;;;;;5.53;4.07;;;;;;;9.78;94.00;99251.66;4961507;29;20251;-79
2022/02/24 07:39:10;;;;;;;5.47;4.32;;;;;;;9.91;93.04;99255.34;4955570;29;20301;-81
2022/02/24 07:41:38;;;;;;;8.48;4.28;;;;;;;9.97;91.64;99251.41;4955471;29;20654;-82
2022/02/24 07:44:06;;;;;;;5.60;4.10;;;;;;;9.93;91.70;99255.25;4955205;28;20229;-81
2022/02/24 07:46:34;;;;;;;9.40;3.88;;;;;;;9.84;92.69;99250.44;4955443;28;20215;-81
2022/02/24 07:49:01;;;;;;;6.93;3.75;;;;;;;9.92;92.53;99254.38;4955082;28;20203;-81
2022/02/24 07:51:28;;;;;;;6.32;4.50;;;;;;;10.09;91.38;99247.97;4954170;28;20200;-83
2022/02/24 07:53:55;;;;;;;5.85;4.20;;;;;;;10.22;89.71;99245.38;4955115;29;20283;-79
2022/02/24 07:56:21;;;;;;;6.95;4.32;;;;;;;10.26;90.02;99246.91;4955428;29;20204;-80
2022/02/24 07:58:48;;;;;;;5.40;4.47;;;;;;;10.37;89.59;99246.28;4955109;29;20554;-83
2022/02/24 08:01:15;;;;;;;7.22;4.30;;;;;;;10.43;89.09;99243.22;4954840;29;20196;-84
2022/02/24 08:03:43;;;;;;;6.20;4.22;;;;;;;10.48;88.05;99234.84;4955380;29;20315;-80
2022/02/24 08:06:10;;;;;;;8.07;4.03;;;;;;;10.44;87.77;99234.16;4955073;29;20199;-80
2022/02/24 08:08:36;;;;;;;5.88;3.67;;;;;;;10.42;88.15;99234.28;4955120;29;20193;-82
2022/02/24 08:11:03;;;;;;;8.32;4.82;;;;;;;10.49;87.13;99240.13;4955520;29;20207;-84
2022/02/24 08:13:30;;;;;;;5.47;3.65;;;;;;;10.48;87.26;99233.00;4954803;29;20281;-82
2022/02/24 08:15:56;;;;;;;6.68;4.13;;;;;;;10.64;86.74;99230.19;4954677;28;20551;-81
2022/02/24 08:18:23;;;;;;;6.32;4.30;;;;;;;10.63;86.82;99232.03;4954616;29;20208;-83
2022/02/24 08:20:51;;;;;;;4.72;4.03;;;;;;;10.83;85.88;99228.06;4954429;29;20203;-81
2022/02/24 08:23:18;;;;;;;5.68;3.83;;;;;;;11.05;83.50;99215.84;4954639;29;20228;-82
2022/02/24 08:25:45;;;;;;;9.93;3.60;;;;;;;11.06;83.90;99209.53;4954662;29;20214;-80
2022/02/24 08:28:12;;;;;;;6.13;3.50;;;;;;;11.15;83.08;99202.66;4954872;29;20619;-80
2022/02/24 08:30:39;;;;;;;7.60;3.72;;;;;;;11.21;82.90;99197.69;4960712;28;20686;-81
2022/02/24 08:33:06;;;;;;;4.78;2.90;;;;;;;11.26;81.71;99200.97;4974495;28;20283;-79
2022/02/24 08:35:33;;;;;;;4.75;3.03;;;;;;;11.27;81.52;99186.50;4973401;28;20199;-81
2022/02/24 08:38:01;;;;;;;6.05;2.60;;;;;;;11.30;81.82;99189.97;4974050;28;20193;-80
2022/02/24 08:40:29;;;;;;;4.93;2.80;;;;;;;11.34;82.14;99186.97;4973136;28;20206;-81
2022/02/24 08:42:56;;;;;;;6.45;3.45;;;;;;;11.42;81.35;99183.75;4962066;28;20207;-80
2022/02/24 08:45:23;;;;;;;7.22;3.88;;;;;;;11.51;81.60;99183.13;4954205;29;20181;-81
2022/02/24 08:47:50;;;;;;;6.32;5.30;;;;;;;11.47;81.41;99182.47;4954223;29;20207;-80
2022/02/24 08:50:19;;;;;;;7.63;4.68;;;;;;;11.52;82.00;99179.44;4955907;28;20283;-80
2022/02/24 08:52:46;;;;;;;4.32;3.08;;;;;;;11.67;80.75;99185.63;4968893;28;20254;-80
2022/02/24 08:55:13;;;;;;;5.97;2.92;;;;;;;11.73;80.46;99178.94;4962899;28;20272;-79
2022/02/24 08:57:40;;;;;;;3.90;3.50;;;;;;;11.77;80.19;99177.75;4967098;28;20276;-79
2022/02/24 09:00:09;;;;;;;5.75;3.70;;;;;;;11.46;81.94;99164.56;4971450;28;20200;-80
2022/02/24 09:02:36;;;;;;;8.23;3.30;;;;;;;11.39;83.20;99165.94;4973808;28;20279;-81
2022/02/24 09:05:02;;;;;;;5.85;3.58;;;;;;;11.50;83.23;99159.81;4967166;28;20227;-81
2022/02/24 09:07:29;;;;;;;4.72;3.17;;;;;;;11.51;83.67;99150.78;4938974;28;20203;-79
2022/02/24 09:09:56;;;;;;;3.50;2.90;;;;;;;11.51;83.53;99148.06;4934244;29;20228;-79
2022/02/24 09:12:24;;;;;;;4.97;2.90;;;;;;;11.44;84.00;99150.34;4963813;28;20279;-80
2022/02/24 09:14:50;;;;;;;6.53;3.20;;;;;;;11.41;84.52;99149.66;4962358;28;20275;-81
2022/02/24 09:17:17;;;;;;;7.97;3.60;;;;;;;11.35;85.00;99139.31;4953918;29;20279;-82
2022/02/24 09:19:44;;;;;;;4.05;2.80;;;;;;;11.35;85.68;99139.31;4954102;29;20215;-82
2022/02/24 09:22:12;;;;;;;7.75;6.53;;;;;;;11.30;86.03;99142.31;4954110;28;20292;-82
2022/02/24 09:24:39;;;;;;;4.00;3.13;;;;;;;11.07;86.95;99146.56;4953897;29;20234;-82
2022/02/24 09:27:06;;;;;;;7.70;3.40;;;;;;;11.08;88.04;99148.31;4964411;28;20306;-81
2022/02/24 09:29:37;;;;;;;5.00;3.00;;;;;;;11.07;88.81;99146.56;4972878;28;20298;-80
2022/02/24 09:32:04;;;;;;;6.43;3.40;;;;;;;11.21;87.81;99140.25;4972277;28;20909;-81
2022/02/24 09:34:31;;;;;;;5.10;3.95;;;;;;;11.52;86.13;99157.03;4971563;28;20206;-81
2022/02/24 09:36:57;;;;;;;6.43;4.15;;;;;;;11.31;86.50;99141.34;4959787;28;20228;-85
2022/02/24 09:39:24;;;;;;;10.07;4.00;;;;;;;11.29;87.30;99143.28;4955416;28;20276;-83
2022/02/24 09:41:50;;;;;;;6.07;3.53;;;;;;;11.46;85.57;99132.22;4960990;28;20286;-82
2022/02/24 09:44:17;;;;;;;5.18;3.78;;;;;;;11.55;84.67;99130.69;4973507;28;20271;-83
2022/02/24 09:46:47;;;;;;;6.30;3.75;;;;;;;11.50;84.47;99134.69;4971793;28;20585;-85
2022/02/24 09:49:18;;;;;;;5.00;3.55;;;;;;;11.62;83.32;99128.44;4941690;28;20196;-84
2022/02/24 09:51:45;;;;;;;7.05;3.67;;;;;;;11.65;83.16;99126.41;4961323;28;20197;-82
2022/02/24 09:54:12;;;;;;;5.78;3.55;;;;;;;11.59;83.41;99129.53;4967734;28;20187;-82
2022/02/24 09:56:40;;;;;;;5.40;3.35;;;;;;;11.69;82.98;99127.06;4971389;28;20659;-84
2022/02/24 09:59:07;;;;;;;3.90;3.50;;;;;;;11.82;82.47;99124.34;4956184;28;20285;-83
2022/02/24 10:01:34;;;;;;;7.07;4.30;;;;;;;11.65;83.48;99115.63;4958095;28;20243;-79
2022/02/24 10:04:03;;;;;;;6.03;3.95;;;;;;;11.65;83.41;99131.78;4970075;28;20271;-81
2022/02/24 10:06:35;;;;;;;8.30;4.20;;;;;;;11.87;82.73;99120.41;4972955;28;20203;-80
2022/02/24 10:09:02;;;;;;;6.32;4.28;;;;;;;12.03;81.46;99127.38;4971684;28;20192;-82
2022/02/24 10:11:31;;;;;;;9.98;4.55;;;;;;;12.17;80.22;99118.31;4966991;28;20210;-81
2022/02/24 10:14:00;;;;;;;6.63;4.07;;;;;;;11.74;82.55;99134.81;4971222;28;20201;-84
2022/02/24 10:16:27;;;;;;;6.88;4.25;;;;;;;11.60;84.76;99120.47;4946065;28;20632;-80
2022/02/24 10:18:55;;;;;;;6.93;3.80;;;;;;;11.76;84.43;99131.06;4953436;28;20200;-83
2022/02/24 10:21:23;;;;;;;8.38;4.20;;;;;;;11.83;82.87;99135.03;4972405;28;20283;-84
2022/02/24 10:23:51;;;;;;;9.15;4.30;;;;;;;11.81;83.34;99119.94;4964468;28;20223;-83
2022/02/24 10:26:20;;;;;;;4.85;4.35;;;;;;;11.64;84.81;99121.97;4968765;28;20210;-82
2022/02/24 10:28:49;;;;;;;6.68;5.03;;;;;;;11.75;84.43;99128.44;4973164;28;20188;-82
2022/02/24 10:31:18;;;;;;;7.43;4.10;;;;;;;11.62;85.05;99128.44;4970773;28;20992;-82
2022/02/24 10:33:48;;;;;;;4.63;3.95;;;;;;;11.11;89.34;99134.63;4970481;28;20188;-80
2022/02/24 10:36:18;;;;;;;7.57;4.30;;;;;;;11.39;89.19;99140.81;4971105;28;20188;-83
2022/02/24 10:38:59;;;;;;;5.72;4.32;;;;;;;11.55;87.00;99140.63;4953328;28;20193;-82
2022/02/24 10:41:30;;;;;;;4.90;3.88;;;;;;;11.85;85.85;99127.69;4950629;28;20354;-83
2022/02/24 10:44:16;;;;;;;4.97;3.67;;;;;;;11.88;85.44;99134.75;4953802;29;20711;-82
2022/02/24 10:46:45;;;;;;;6.50;4.05;;;;;;;11.78;85.58;99129.13;4962418;28;20204;-81
2022/02/24 10:49:15;;;;;;;8.32;5.20;;;;;;;11.73;86.37;99125.00;4955271;28;20624;-85
2022/02/24 10:51:42;;;;;;;4.30;3.83;;;;;;;11.69;86.80;99127.06;4958367;28;20663;-82
2022/02/24 10:54:12;;;;;;;13.13;4.97;;;;;;;11.97;84.96;99115.19;4954389;28;20684;-83
2022/02/24 10:56:40;;;;;;;7.60;4.30;;;;;;;12.05;83.99;99110.13;4968622;28;20196;-85
2022/02/24 10:59:07;;;;;;;7.60;4.80;;;;;;;12.27;83.08;99111.25;4963984;28;20747;-83
2022/02/24 11:01:34;;;;;;;5.88;4.60;;;;;;;12.28;81.95;99107.59;4956850;28;20232;-84
2022/02/24 11:04:03;;;;;;;6.57;4.30;;;;;;;12.36;80.45;99098.94;4956774;28;20189;-85
2022/02/24 11:06:33;;;;;;;5.38;4.32;;;;;;;12.02;84.03;99096.84;4950598;28;20287;-84
2022/02/24 11:09:01;;;;;;;5.65;3.70;;;;;;;12.18;81.63;99099.28;4955237;28;20201;-84
2022/02/24 11:11:31;;;;;;;6.15;4.20;;;;;;;11.88;83.12;99102.38;4953138;28;20203;-81
2022/02/24 11:14:01;;;;;;;5.60;4.55;;;;;;;12.05;82.53;99090.34;4952731;28;20199;-80
2022/02/24 11:16:29;;;;;;;8.20;4.35;;;;;;;12.01;83.05;99084.34;4952600;28;20268;-78
2022/02/24 11:18:59;;;;;;;6.15;4.43;;;;;;;12.07;82.81;99077.63;4964001;28;20291;-79
2022/02/24 11:21:27;;;;;;;5.50;4.45;;;;;;;12.33;81.64;99078.41;4955854;28;20913;-81
2022/02/24 11:23:55;;;;;;;5.38;4.00;;;;;;;12.29;80.64;99075.06;4957188;28;20298;-81
2022/02/24 11:26:47;;;;;;;6.22;4.53;;;;;;;12.21;81.66;99072.09;4971746;28;20721;-82
2022/02/24 11:29:29;;;;;;;9.32;4.53;;;;;;;12.11;81.87;99062.94;4976046;28;20211;-81
2022/02/24 11:32:01;;;;;;;7.75;4.80;;;;;;;12.41;81.01;99064.34;4975271;28;20230;-82
2022/02/24 11:34:56;;;;;;;8.40;6.43;;;;;;;12.24;80.62;99063.75;4974952;28;20243;-78
2022/02/24 11:37:24;;;;;;;8.02;4.40;;;;;;;12.21;80.92;99063.09;4956047;28;20212;-78